sensor_id;sensor_type;location;lat;lon;timestamp;P1;durP1;ratioP1;P2;durP2;ratioP2
79687;SDS011;69155;49.464;2.108;2024-02-26T09:13:42;2.67;;;2.10;;
79687;SDS011;69155;49.464;2.108;2024-02-26T09:16:13;2.40;;;1.85;;
79687;SDS011;69155;49.464;2.108;2024-02-26T09:31:04;1.65;;;1.42;;
79687;SDS011;69155;49.464;2.108;2024-02-26T09:33:29;1.55;;;1.40;;
79687;SDS011;69155;49.464;2.108;2024-02-26T09:35:54;1.52;;;1.40;;
79687;SDS011;69155;49.464;2.108;2024-02-26T09:38:20;2.17;;;1.57;;
79687;SDS011;69155;49.464;2.108;2024-02-26T09:40:47;3.10;;;2.00;;
79687;SDS011;69155;49.464;2.108;2024-02-26T09:46:17;2.15;;;1.95;;
79687;SDS011;69155;49.464;2.108;2024-02-26T09:48:54;4.75;;;2.53;;
79687;SDS011;69155;49.464;2.108;2024-02-26T09:51:22;2.88;;;2.22;;
79687;SDS011;69155;49.464;2.108;2024-02-26T09:59:42;5.40;;;2.70;;
79687;SDS011;69155;49.464;2.108;2024-02-26T10:02:16;2.65;;;2.05;;
79687;SDS011;69155;49.464;2.108;2024-02-26T10:04:43;3.45;;;2.67;;
79687;SDS011;69155;49.464;2.108;2024-02-26T10:07:16;3.35;;;2.60;;
79687;SDS011;69155;49.464;2.108;2024-02-26T10:15:27;4.35;;;2.88;;
79687;SDS011;69155;49.464;2.108;2024-02-26T10:29:24;5.70;;;3.60;;
79687;SDS011;69155;49.464;2.108;2024-02-26T10:32:15;4.85;;;3.90;;
79687;SDS011;69155;49.464;2.108;2024-02-26T10:38:12;6.85;;;3.40;;
79687;SDS011;69155;49.464;2.108;2024-02-26T10:59:43;3.33;;;2.88;;
79687;SDS011;69155;49.464;2.108;2024-02-26T11:02:33;4.45;;;3.45;;
79687;SDS011;69155;49.464;2.108;2024-02-26T11:08:11;5.43;;;4.68;;
79687;SDS011;69155;49.464;2.108;2024-02-26T11:25:01;3.75;;;3.20;;
79687;SDS011;69155;49.464;2.108;2024-02-26T12:04:11;2.60;;;2.25;;
79687;SDS011;69155;49.464;2.108;2024-02-26T12:45:33;3.50;;;3.05;;
79687;SDS011;69155;49.464;2.108;2024-02-26T12:47:59;5.68;;;3.88;;
79687;SDS011;69155;49.464;2.108;2024-02-26T12:50:26;4.50;;;3.37;;
79687;SDS011;69155;49.464;2.108;2024-02-26T13:03:58;3.20;;;2.72;;
79687;SDS011;69155;49.464;2.108;2024-02-26T13:06:25;3.28;;;2.70;;
79687;SDS011;69155;49.464;2.108;2024-02-26T13:24:28;3.22;;;2.78;;
79687;SDS011;69155;49.464;2.108;2024-02-26T13:33:15;4.47;;;3.60;;
79687;SDS011;69155;49.464;2.108;2024-02-26T13:54:26;3.83;;;3.30;;
79687;SDS011;69155;49.464;2.108;2024-02-26T14:07:12;4.50;;;3.50;;
79687;SDS011;69155;49.464;2.108;2024-02-26T14:09:18;4.78;;;3.67;;
79687;SDS011;69155;49.464;2.108;2024-02-26T14:11:51;6.07;;;4.50;;
79687;SDS011;69155;49.464;2.108;2024-02-26T14:14:22;4.47;;;3.60;;
79687;SDS011;69155;49.464;2.108;2024-02-26T14:16:48;4.75;;;3.92;;
79687;SDS011;69155;49.464;2.108;2024-02-26T14:22:15;5.53;;;4.18;;
79687;SDS011;69155;49.464;2.108;2024-02-26T14:24:41;3.75;;;3.30;;
79687;SDS011;69155;49.464;2.108;2024-02-26T14:30:25;4.63;;;3.75;;
79687;SDS011;69155;49.464;2.108;2024-02-26T14:33:08;4.25;;;3.30;;
79687;SDS011;69155;49.464;2.108;2024-02-26T14:41:09;6.00;;;4.85;;
79687;SDS011;69155;49.464;2.108;2024-02-26T14:49:35;6.18;;;3.95;;
79687;SDS011;69155;49.464;2.108;2024-02-26T14:54:52;5.63;;;4.10;;
79687;SDS011;69155;49.464;2.108;2024-02-26T14:57:26;8.93;;;4.47;;
79687;SDS011;69155;49.464;2.108;2024-02-26T15:00:01;5.53;;;4.22;;
79687;SDS011;69155;49.464;2.108;2024-02-26T15:02:41;4.35;;;3.78;;
79687;SDS011;69155;49.464;2.108;2024-02-26T15:05:09;5.73;;;4.37;;
79687;SDS011;69155;49.464;2.108;2024-02-26T15:07:50;4.85;;;3.90;;
79687;SDS011;69155;49.464;2.108;2024-02-26T15:10:16;6.53;;;4.50;;
79687;SDS011;69155;49.464;2.108;2024-02-26T15:12:44;3.37;;;2.80;;
79687;SDS011;69155;49.464;2.108;2024-02-26T15:15:15;8.13;;;4.88;;
79687;SDS011;69155;49.464;2.108;2024-02-26T15:17:43;6.32;;;4.53;;
79687;SDS011;69155;49.464;2.108;2024-02-26T15:20:08;5.50;;;3.67;;
79687;SDS011;69155;49.464;2.108;2024-02-26T15:22:36;5.00;;;4.38;;
79687;SDS011;69155;49.464;2.108;2024-02-26T15:25:04;5.22;;;3.60;;
79687;SDS011;69155;49.464;2.108;2024-02-26T15:27:30;4.25;;;3.50;;
79687;SDS011;69155;49.464;2.108;2024-02-26T15:30:03;11.80;;;5.65;;
79687;SDS011;69155;49.464;2.108;2024-02-26T15:32:29;7.65;;;4.85;;
79687;SDS011;69155;49.464;2.108;2024-02-26T15:38:24;7.57;;;5.28;;
79687;SDS011;69155;49.464;2.108;2024-02-26T15:40:49;8.02;;;5.35;;
79687;SDS011;69155;49.464;2.108;2024-02-26T15:43:36;4.57;;;3.75;;
79687;SDS011;69155;49.464;2.108;2024-02-26T15:46:01;4.97;;;3.88;;
79687;SDS011;69155;49.464;2.108;2024-02-26T15:51:18;5.07;;;3.95;;
79687;SDS011;69155;49.464;2.108;2024-02-26T15:53:59;6.07;;;4.57;;
79687;SDS011;69155;49.464;2.108;2024-02-26T15:56:31;4.82;;;3.85;;
79687;SDS011;69155;49.464;2.108;2024-02-26T16:01:49;4.43;;;3.67;;
79687;SDS011;69155;49.464;2.108;2024-02-26T16:04:37;5.03;;;3.47;;
79687;SDS011;69155;49.464;2.108;2024-02-26T16:07:05;4.90;;;3.30;;
79687;SDS011;69155;49.464;2.108;2024-02-26T16:09:40;6.07;;;4.53;;
79687;SDS011;69155;49.464;2.108;2024-02-26T16:12:09;3.92;;;3.20;;
79687;SDS011;69155;49.464;2.108;2024-02-26T16:14:50;5.55;;;3.88;;
79687;SDS011;69155;49.464;2.108;2024-02-26T16:17:22;5.05;;;3.78;;
79687;SDS011;69155;49.464;2.108;2024-02-26T16:19:48;8.20;;;4.28;;
79687;SDS011;69155;49.464;2.108;2024-02-26T16:22:15;4.40;;;3.70;;
79687;SDS011;69155;49.464;2.108;2024-02-26T16:24:41;5.78;;;4.55;;
79687;SDS011;69155;49.464;2.108;2024-02-26T16:27:12;6.57;;;4.40;;
79687;SDS011;69155;49.464;2.108;2024-02-26T16:29:38;5.88;;;4.28;;
79687;SDS011;69155;49.464;2.108;2024-02-26T16:32:07;6.30;;;4.70;;
79687;SDS011;69155;49.464;2.108;2024-02-26T16:37:30;7.00;;;4.90;;
79687;SDS011;69155;49.464;2.108;2024-02-26T16:40:12;5.18;;;4.18;;
79687;SDS011;69155;49.464;2.108;2024-02-26T16:43:25;5.28;;;3.67;;
79687;SDS011;69155;49.464;2.108;2024-02-26T16:52:07;4.40;;;3.13;;
79687;SDS011;69155;49.464;2.108;2024-02-26T16:54:33;4.68;;;3.72;;
79687;SDS011;69155;49.464;2.108;2024-02-26T16:57:18;5.80;;;4.22;;
79687;SDS011;69155;49.464;2.108;2024-02-26T16:59:45;4.38;;;3.95;;
79687;SDS011;69155;49.464;2.108;2024-02-26T17:02:10;4.57;;;3.70;;
79687;SDS011;69155;49.464;2.108;2024-02-26T17:07:46;5.82;;;4.68;;
79687;SDS011;69155;49.464;2.108;2024-02-26T17:16:58;4.28;;;3.30;;
79687;SDS011;69155;49.464;2.108;2024-02-26T17:19:28;5.43;;;4.10;;
79687;SDS011;69155;49.464;2.108;2024-02-26T17:22:16;6.53;;;4.13;;
79687;SDS011;69155;49.464;2.108;2024-02-26T17:25:03;6.07;;;4.50;;
79687;SDS011;69155;49.464;2.108;2024-02-26T17:30:36;5.70;;;4.40;;
79687;SDS011;69155;49.464;2.108;2024-02-26T17:33:07;4.70;;;4.00;;
79687;SDS011;69155;49.464;2.108;2024-02-26T17:35:38;5.80;;;4.78;;
79687;SDS011;69155;49.464;2.108;2024-02-26T17:38:11;8.43;;;5.85;;
79687;SDS011;69155;49.464;2.108;2024-02-26T17:40:36;5.22;;;3.55;;
79687;SDS011;69155;49.464;2.108;2024-02-26T17:43:01;4.68;;;3.85;;
79687;SDS011;69155;49.464;2.108;2024-02-26T17:45:27;5.80;;;4.90;;
79687;SDS011;69155;49.464;2.108;2024-02-26T17:48:06;4.93;;;4.00;;
79687;SDS011;69155;49.464;2.108;2024-02-26T17:50:52;5.13;;;4.47;;
79687;SDS011;69155;49.464;2.108;2024-02-26T17:53:18;5.68;;;4.47;;
79687;SDS011;69155;49.464;2.108;2024-02-26T17:55:43;9.95;;;5.40;;
79687;SDS011;69155;49.464;2.108;2024-02-26T17:58:12;8.40;;;4.83;;
79687;SDS011;69155;49.464;2.108;2024-02-26T18:00:39;5.78;;;4.13;;
79687;SDS011;69155;49.464;2.108;2024-02-26T18:03:07;7.10;;;5.07;;
79687;SDS011;69155;49.464;2.108;2024-02-26T18:05:40;5.55;;;4.50;;
79687;SDS011;69155;49.464;2.108;2024-02-26T18:10:40;6.82;;;4.65;;
79687;SDS011;69155;49.464;2.108;2024-02-26T18:13:05;5.67;;;4.53;;
79687;SDS011;69155;49.464;2.108;2024-02-26T18:15:30;5.80;;;4.50;;
79687;SDS011;69155;49.464;2.108;2024-02-26T18:17:56;7.30;;;5.03;;
79687;SDS011;69155;49.464;2.108;2024-02-26T18:20:21;4.45;;;3.88;;
79687;SDS011;69155;49.464;2.108;2024-02-26T18:23:07;5.57;;;4.47;;
79687;SDS011;69155;49.464;2.108;2024-02-26T18:25:36;6.45;;;4.82;;
79687;SDS011;69155;49.464;2.108;2024-02-26T18:28:01;6.82;;;4.55;;
79687;SDS011;69155;49.464;2.108;2024-02-26T18:30:27;7.25;;;4.95;;
79687;SDS011;69155;49.464;2.108;2024-02-26T18:32:52;4.97;;;4.23;;
79687;SDS011;69155;49.464;2.108;2024-02-26T18:35:18;9.15;;;6.15;;
79687;SDS011;69155;49.464;2.108;2024-02-26T18:37:44;8.15;;;4.43;;
79687;SDS011;69155;49.464;2.108;2024-02-26T18:40:12;5.53;;;4.13;;
79687;SDS011;69155;49.464;2.108;2024-02-26T18:42:37;5.07;;;4.03;;
79687;SDS011;69155;49.464;2.108;2024-02-26T18:45:07;6.38;;;5.47;;
79687;SDS011;69155;49.464;2.108;2024-02-26T18:47:35;4.95;;;3.35;;
79687;SDS011;69155;49.464;2.108;2024-02-26T18:50:00;5.32;;;4.45;;
79687;SDS011;69155;49.464;2.108;2024-02-26T18:52:29;4.43;;;3.65;;
79687;SDS011;69155;49.464;2.108;2024-02-26T18:54:54;5.80;;;4.38;;
79687;SDS011;69155;49.464;2.108;2024-02-26T18:57:20;6.10;;;4.90;;
79687;SDS011;69155;49.464;2.108;2024-02-26T18:59:47;6.87;;;4.80;;
79687;SDS011;69155;49.464;2.108;2024-02-26T19:02:14;8.13;;;5.93;;
79687;SDS011;69155;49.464;2.108;2024-02-26T19:04:40;7.13;;;5.70;;
79687;SDS011;69155;49.464;2.108;2024-02-26T19:07:09;6.28;;;4.93;;
79687;SDS011;69155;49.464;2.108;2024-02-26T19:09:34;9.03;;;6.13;;
79687;SDS011;69155;49.464;2.108;2024-02-26T19:14:54;9.05;;;6.07;;
79687;SDS011;69155;49.464;2.108;2024-02-26T19:17:30;6.32;;;5.68;;
79687;SDS011;69155;49.464;2.108;2024-02-26T19:20:16;8.03;;;6.50;;
79687;SDS011;69155;49.464;2.108;2024-02-26T19:22:47;7.32;;;6.15;;
79687;SDS011;69155;49.464;2.108;2024-02-26T19:25:16;9.23;;;5.97;;
79687;SDS011;69155;49.464;2.108;2024-02-26T19:27:41;10.18;;;5.85;;
79687;SDS011;69155;49.464;2.108;2024-02-26T19:30:12;10.55;;;6.95;;
79687;SDS011;69155;49.464;2.108;2024-02-26T19:32:37;12.93;;;7.03;;
79687;SDS011;69155;49.464;2.108;2024-02-26T19:35:05;13.75;;;6.55;;
79687;SDS011;69155;49.464;2.108;2024-02-26T19:37:37;8.95;;;6.20;;
79687;SDS011;69155;49.464;2.108;2024-02-26T19:40:03;12.63;;;7.13;;
79687;SDS011;69155;49.464;2.108;2024-02-26T19:42:28;10.30;;;6.40;;
79687;SDS011;69155;49.464;2.108;2024-02-26T19:44:56;7.97;;;5.20;;
79687;SDS011;69155;49.464;2.108;2024-02-26T19:47:21;7.07;;;5.20;;
79687;SDS011;69155;49.464;2.108;2024-02-26T19:49:47;9.67;;;5.83;;
79687;SDS011;69155;49.464;2.108;2024-02-26T19:52:13;10.73;;;7.05;;
79687;SDS011;69155;49.464;2.108;2024-02-26T19:54:42;13.23;;;8.50;;
79687;SDS011;69155;49.464;2.108;2024-02-26T19:57:10;12.23;;;8.18;;
79687;SDS011;69155;49.464;2.108;2024-02-26T19:59:35;11.77;;;8.32;;
79687;SDS011;69155;49.464;2.108;2024-02-26T20:02:01;11.23;;;8.15;;
79687;SDS011;69155;49.464;2.108;2024-02-26T20:04:26;7.03;;;5.40;;
79687;SDS011;69155;49.464;2.108;2024-02-26T20:06:52;17.17;;;10.90;;
79687;SDS011;69155;49.464;2.108;2024-02-26T20:09:17;12.82;;;8.60;;
79687;SDS011;69155;49.464;2.108;2024-02-26T20:11:44;11.90;;;7.55;;
79687;SDS011;69155;49.464;2.108;2024-02-26T20:14:09;11.97;;;8.43;;
79687;SDS011;69155;49.464;2.108;2024-02-26T20:16:36;11.38;;;7.60;;
79687;SDS011;69155;49.464;2.108;2024-02-26T20:19:01;12.20;;;8.37;;
79687;SDS011;69155;49.464;2.108;2024-02-26T20:21:27;9.40;;;7.23;;
79687;SDS011;69155;49.464;2.108;2024-02-26T20:23:52;11.03;;;8.53;;
79687;SDS011;69155;49.464;2.108;2024-02-26T20:26:17;10.37;;;7.40;;
79687;SDS011;69155;49.464;2.108;2024-02-26T20:28:43;11.57;;;7.80;;
79687;SDS011;69155;49.464;2.108;2024-02-26T20:31:08;11.53;;;8.10;;
79687;SDS011;69155;49.464;2.108;2024-02-26T20:33:36;11.70;;;9.07;;
79687;SDS011;69155;49.464;2.108;2024-02-26T20:36:02;11.18;;;7.15;;
79687;SDS011;69155;49.464;2.108;2024-02-26T20:38:28;11.63;;;7.88;;
79687;SDS011;69155;49.464;2.108;2024-02-26T20:40:53;10.33;;;7.80;;
79687;SDS011;69155;49.464;2.108;2024-02-26T20:43:18;9.80;;;6.47;;
79687;SDS011;69155;49.464;2.108;2024-02-26T20:45:44;9.02;;;6.45;;
79687;SDS011;69155;49.464;2.108;2024-02-26T20:48:16;9.05;;;6.82;;
79687;SDS011;69155;49.464;2.108;2024-02-26T20:50:42;11.00;;;7.13;;
79687;SDS011;69155;49.464;2.108;2024-02-26T20:53:08;12.57;;;8.02;;
79687;SDS011;69155;49.464;2.108;2024-02-26T20:55:36;13.35;;;9.35;;
79687;SDS011;69155;49.464;2.108;2024-02-26T20:58:03;11.02;;;8.10;;
79687;SDS011;69155;49.464;2.108;2024-02-26T21:00:28;12.67;;;7.70;;
79687;SDS011;69155;49.464;2.108;2024-02-26T21:02:53;12.27;;;7.37;;
79687;SDS011;69155;49.464;2.108;2024-02-26T21:05:18;11.67;;;8.73;;
79687;SDS011;69155;49.464;2.108;2024-02-26T21:07:44;15.13;;;10.00;;
79687;SDS011;69155;49.464;2.108;2024-02-26T21:10:09;10.80;;;7.10;;
79687;SDS011;69155;49.464;2.108;2024-02-26T21:12:34;15.23;;;9.05;;
79687;SDS011;69155;49.464;2.108;2024-02-26T21:15:00;14.77;;;9.83;;
79687;SDS011;69155;49.464;2.108;2024-02-26T21:17:25;14.80;;;9.33;;
79687;SDS011;69155;49.464;2.108;2024-02-26T21:19:50;19.33;;;10.43;;
79687;SDS011;69155;49.464;2.108;2024-02-26T21:22:16;11.13;;;8.23;;
79687;SDS011;69155;49.464;2.108;2024-02-26T21:24:41;14.80;;;9.30;;
79687;SDS011;69155;49.464;2.108;2024-02-26T21:27:07;14.97;;;10.00;;
79687;SDS011;69155;49.464;2.108;2024-02-26T21:29:32;16.57;;;9.40;;
79687;SDS011;69155;49.464;2.108;2024-02-26T21:31:57;10.20;;;7.83;;
79687;SDS011;69155;49.464;2.108;2024-02-26T21:34:22;13.93;;;8.57;;
79687;SDS011;69155;49.464;2.108;2024-02-26T21:36:48;12.38;;;8.80;;
79687;SDS011;69155;49.464;2.108;2024-02-26T21:39:14;12.77;;;8.77;;
79687;SDS011;69155;49.464;2.108;2024-02-26T21:41:41;14.65;;;8.20;;
79687;SDS011;69155;49.464;2.108;2024-02-26T21:44:07;10.97;;;8.27;;
79687;SDS011;69155;49.464;2.108;2024-02-26T21:46:34;13.07;;;9.43;;
79687;SDS011;69155;49.464;2.108;2024-02-26T21:49:00;11.90;;;8.35;;
79687;SDS011;69155;49.464;2.108;2024-02-26T21:51:25;13.47;;;7.87;;
79687;SDS011;69155;49.464;2.108;2024-02-26T21:53:56;13.37;;;9.40;;
79687;SDS011;69155;49.464;2.108;2024-02-26T21:56:22;13.77;;;9.05;;
79687;SDS011;69155;49.464;2.108;2024-02-26T21:58:49;14.57;;;9.80;;
79687;SDS011;69155;49.464;2.108;2024-02-26T22:01:15;11.65;;;8.27;;
79687;SDS011;69155;49.464;2.108;2024-02-26T22:03:40;12.03;;;8.43;;
79687;SDS011;69155;49.464;2.108;2024-02-26T22:06:13;15.45;;;10.40;;
79687;SDS011;69155;49.464;2.108;2024-02-26T22:08:48;14.25;;;9.18;;
79687;SDS011;69155;49.464;2.108;2024-02-26T22:11:13;20.50;;;11.38;;
79687;SDS011;69155;49.464;2.108;2024-02-26T22:13:38;17.60;;;9.73;;
79687;SDS011;69155;49.464;2.108;2024-02-26T22:16:04;19.80;;;10.53;;
79687;SDS011;69155;49.464;2.108;2024-02-26T22:18:41;18.08;;;9.10;;
79687;SDS011;69155;49.464;2.108;2024-02-26T22:21:12;14.93;;;8.65;;
79687;SDS011;69155;49.464;2.108;2024-02-26T22:23:37;20.65;;;10.43;;
79687;SDS011;69155;49.464;2.108;2024-02-26T22:26:03;14.93;;;9.90;;
79687;SDS011;69155;49.464;2.108;2024-02-26T22:28:28;23.90;;;11.52;;
79687;SDS011;69155;49.464;2.108;2024-02-26T22:30:56;16.92;;;10.20;;
79687;SDS011;69155;49.464;2.108;2024-02-26T22:33:23;17.57;;;10.70;;
79687;SDS011;69155;49.464;2.108;2024-02-26T22:35:53;12.68;;;8.45;;
79687;SDS011;69155;49.464;2.108;2024-02-26T22:38:21;20.40;;;10.70;;
79687;SDS011;69155;49.464;2.108;2024-02-26T22:40:49;15.48;;;9.27;;
79687;SDS011;69155;49.464;2.108;2024-02-26T22:43:22;13.85;;;9.27;;
79687;SDS011;69155;49.464;2.108;2024-02-26T22:45:47;19.75;;;11.55;;
79687;SDS011;69155;49.464;2.108;2024-02-26T22:48:14;14.85;;;10.00;;
79687;SDS011;69155;49.464;2.108;2024-02-26T22:50:39;22.13;;;12.20;;
79687;SDS011;69155;49.464;2.108;2024-02-26T22:53:05;19.63;;;10.93;;
79687;SDS011;69155;49.464;2.108;2024-02-26T22:55:30;14.93;;;9.05;;
79687;SDS011;69155;49.464;2.108;2024-02-26T22:57:56;16.63;;;10.05;;
79687;SDS011;69155;49.464;2.108;2024-02-26T23:00:25;17.23;;;10.02;;
79687;SDS011;69155;49.464;2.108;2024-02-26T23:02:57;14.63;;;10.02;;
79687;SDS011;69155;49.464;2.108;2024-02-26T23:05:23;19.77;;;9.40;;
79687;SDS011;69155;49.464;2.108;2024-02-26T23:07:49;14.65;;;10.10;;
79687;SDS011;69155;49.464;2.108;2024-02-26T23:10:17;16.85;;;9.15;;
79687;SDS011;69155;49.464;2.108;2024-02-26T23:12:48;13.33;;;8.63;;
79687;SDS011;69155;49.464;2.108;2024-02-26T23:15:14;16.40;;;11.07;;
79687;SDS011;69155;49.464;2.108;2024-02-26T23:17:40;12.82;;;7.18;;
79687;SDS011;69155;49.464;2.108;2024-02-26T23:20:05;13.27;;;8.13;;
79687;SDS011;69155;49.464;2.108;2024-02-26T23:22:42;13.32;;;8.82;;
79687;SDS011;69155;49.464;2.108;2024-02-26T23:25:10;17.80;;;9.57;;
79687;SDS011;69155;49.464;2.108;2024-02-26T23:27:36;16.60;;;10.52;;
79687;SDS011;69155;49.464;2.108;2024-02-26T23:30:02;20.23;;;9.57;;
79687;SDS011;69155;49.464;2.108;2024-02-26T23:32:28;16.90;;;9.30;;
79687;SDS011;69155;49.464;2.108;2024-02-26T23:34:53;17.90;;;10.27;;
79687;SDS011;69155;49.464;2.108;2024-02-26T23:37:18;13.20;;;10.10;;
79687;SDS011;69155;49.464;2.108;2024-02-26T23:39:45;15.23;;;8.03;;
79687;SDS011;69155;49.464;2.108;2024-02-26T23:42:11;14.32;;;8.75;;
79687;SDS011;69155;49.464;2.108;2024-02-26T23:44:36;16.53;;;8.50;;
79687;SDS011;69155;49.464;2.108;2024-02-26T23:47:01;14.73;;;9.20;;
79687;SDS011;69155;49.464;2.108;2024-02-26T23:49:26;16.47;;;9.50;;
79687;SDS011;69155;49.464;2.108;2024-02-26T23:51:52;17.70;;;9.93;;
79687;SDS011;69155;49.464;2.108;2024-02-26T23:54:17;14.77;;;9.20;;
79687;SDS011;69155;49.464;2.108;2024-02-26T23:56:42;12.43;;;8.87;;
79687;SDS011;69155;49.464;2.108;2024-02-26T23:59:08;19.30;;;9.43;;
